sensor_id;sensor_type;location;lat;lon;timestamp;pressure;altitude;pressure_sealevel;temperature;humidity
38289;BME280;24092;53.370;-6.588;2022-09-09T00:00:13;100002.02;;;11.41;100.00
38289;BME280;24092;53.370;-6.588;2022-09-09T00:02:43;100001.34;;;12.29;100.00
38289;BME280;24092;53.370;-6.588;2022-09-09T00:05:20;99998.30;;;12.09;100.00
38289;BME280;24092;53.370;-6.588;2022-09-09T00:07:52;100006.27;;;11.24;100.00
38289;BME280;24092;53.370;-6.588;2022-09-09T00:10:25;100012.64;;;10.71;100.00
38289;BME280;24092;53.370;-6.588;2022-09-09T00:12:59;100020.00;;;9.50;100.00
38289;BME280;24092;53.370;-6.588;2022-09-09T00:15:34;100016.06;;;10.11;100.00
38289;BME280;24092;53.370;-6.588;2022-09-09T00:18:13;100021.09;;;9.91;100.00
38289;BME280;24092;53.370;-6.588;2022-09-09T00:20:49;100030.50;;;9.73;100.00
38289;BME280;24092;53.370;-6.588;2022-09-09T00:23:24;100024.29;;;9.90;100.00
38289;BME280;24092;53.370;-6.588;2022-09-09T00:26:02;100021.49;;;10.95;100.00
38289;BME280;24092;53.370;-6.588;2022-09-09T00:28:38;100016.15;;;10.64;100.00
38289;BME280;24092;53.370;-6.588;2022-09-09T00:31:12;100016.82;;;11.72;100.00
38289;BME280;24092;53.370;-6.588;2022-09-09T00:33:39;100018.96;;;11.99;100.00
38289;BME280;24092;53.370;-6.588;2022-09-09T00:36:12;100012.97;;;12.02;100.00
38289;BME280;24092;53.370;-6.588;2022-09-09T00:38:43;100008.23;;;12.31;100.00
38289;BME280;24092;53.370;-6.588;2022-09-09T00:41:16;100008.28;;;11.76;100.00
38289;BME280;24092;53.370;-6.588;2022-09-09T00:43:53;100005.64;;;12.61;100.00
38289;BME280;24092;53.370;-6.588;2022-09-09T00:46:39;100005.46;;;11.58;100.00
38289;BME280;24092;53.370;-6.588;2022-09-09T00:49:15;100008.06;;;11.61;100.00
38289;BME280;24092;53.370;-6.588;2022-09-09T00:51:58;100000.24;;;11.99;100.00
38289;BME280;24092;53.370;-6.588;2022-09-09T00:54:35;100002.17;;;11.50;100.00
38289;BME280;24092;53.370;-6.588;2022-09-09T00:57:15;100000.77;;;11.30;100.00
38289;BME280;24092;53.370;-6.588;2022-09-09T00:59:47;99997.41;;;11.23;100.00
38289;BME280;24092;53.370;-6.588;2022-09-09T01:02:25;100000.34;;;11.60;100.00
38289;BME280;24092;53.370;-6.588;2022-09-09T01:04:53;100003.70;;;10.33;100.00
38289;BME280;24092;53.370;-6.588;2022-09-09T01:07:20;100002.36;;;11.56;100.00
38289;BME280;24092;53.370;-6.588;2022-09-09T01:09:52;100002.71;;;11.39;100.00
38289;BME280;24092;53.370;-6.588;2022-09-09T01:12:28;100001.53;;;11.12;100.00
38289;BME280;24092;53.370;-6.588;2022-09-09T01:15:04;100001.36;;;11.03;100.00
38289;BME280;24092;53.370;-6.588;2022-09-09T01:17:48;100006.79;;;10.88;100.00
38289;BME280;24092;53.370;-6.588;2022-09-09T01:20:22;100001.02;;;11.03;100.00
38289;BME280;24092;53.370;-6.588;2022-09-09T01:23:07;99998.48;;;11.55;100.00
38289;BME280;24092;53.370;-6.588;2022-09-09T01:26:15;99994.62;;;11.64;100.00
38289;BME280;24092;53.370;-6.588;2022-09-09T01:28:46;99992.79;;;11.85;100.00
38289;BME280;24092;53.370;-6.588;2022-09-09T01:31:17;99988.94;;;12.16;100.00
38289;BME280;24092;53.370;-6.588;2022-09-09T01:33:47;99990.29;;;11.87;100.00
38289;BME280;24092;53.370;-6.588;2022-09-09T01:36:20;99995.65;;;11.64;100.00
38289;BME280;24092;53.370;-6.588;2022-09-09T01:38:47;99992.56;;;11.92;100.00
38289;BME280;24092;53.370;-6.588;2022-09-09T01:41:14;99998.10;;;11.52;100.00
38289;BME280;24092;53.370;-6.588;2022-09-09T01:43:41;99996.40;;;12.25;100.00
38289;BME280;24092;53.370;-6.588;2022-09-09T01:46:08;100000.45;;;10.90;100.00
38289;BME280;24092;53.370;-6.588;2022-09-09T01:48:36;100000.85;;;11.86;100.00
38289;BME280;24092;53.370;-6.588;2022-09-09T01:51:03;100002.26;;;11.38;100.00
38289;BME280;24092;53.370;-6.588;2022-09-09T01:53:34;100000.49;;;11.86;100.00
38289;BME280;24092;53.370;-6.588;2022-09-09T01:56:10;100003.80;;;11.89;100.00
38289;BME280;24092;53.370;-6.588;2022-09-09T01:58:50;100002.81;;;11.70;100.00
38289;BME280;24092;53.370;-6.588;2022-09-09T02:01:30;99999.61;;;11.24;100.00
38289;BME280;24092;53.370;-6.588;2022-09-09T02:04:03;100000.84;;;11.68;100.00
38289;BME280;24092;53.370;-6.588;2022-09-09T02:06:36;100000.23;;;11.47;100.00
38289;BME280;24092;53.370;-6.588;2022-09-09T02:09:06;100005.14;;;10.68;100.00
38289;BME280;24092;53.370;-6.588;2022-09-09T02:11:35;100006.57;;;10.71;100.00
38289;BME280;24092;53.370;-6.588;2022-09-09T02:14:06;100001.37;;;11.23;100.00
38289;BME280;24092;53.370;-6.588;2022-09-09T02:16:38;100001.67;;;11.17;100.00
38289;BME280;24092;53.370;-6.588;2022-09-09T02:19:10;99997.49;;;11.68;100.00
38289;BME280;24092;53.370;-6.588;2022-09-09T02:21:40;99998.25;;;10.85;100.00
38289;BME280;24092;53.370;-6.588;2022-09-09T02:24:09;99995.95;;;11.41;100.00
38289;BME280;24092;53.370;-6.588;2022-09-09T02:26:40;99995.51;;;11.50;100.00
38289;BME280;24092;53.370;-6.588;2022-09-09T02:29:12;99993.44;;;10.98;100.00
38289;BME280;24092;53.370;-6.588;2022-09-09T02:31:42;99996.00;;;10.70;100.00
38289;BME280;24092;53.370;-6.588;2022-09-09T02:34:12;99992.67;;;9.97;100.00
38289;BME280;24092;53.370;-6.588;2022-09-09T02:36:42;99991.48;;;10.95;100.00
38289;BME280;24092;53.370;-6.588;2022-09-09T02:39:11;99994.04;;;11.10;100.00
38289;BME280;24092;53.370;-6.588;2022-09-09T02:41:41;100000.25;;;11.03;100.00
38289;BME280;24092;53.370;-6.588;2022-09-09T02:44:10;100001.17;;;10.43;100.00
38289;BME280;24092;53.370;-6.588;2022-09-09T02:46:54;100001.45;;;10.45;100.00
38289;BME280;24092;53.370;-6.588;2022-09-09T02:49:31;99995.86;;;11.30;100.00
38289;BME280;24092;53.370;-6.588;2022-09-09T02:52:05;99995.34;;;10.27;100.00
38289;BME280;24092;53.370;-6.588;2022-09-09T02:54:34;99994.48;;;10.81;100.00
38289;BME280;24092;53.370;-6.588;2022-09-09T02:57:04;99992.14;;;11.16;100.00
38289;BME280;24092;53.370;-6.588;2022-09-09T02:59:33;99989.27;;;11.01;100.00
38289;BME280;24092;53.370;-6.588;2022-09-09T03:02:02;99987.81;;;10.76;100.00
38289;BME280;24092;53.370;-6.588;2022-09-09T03:04:29;99986.39;;;10.69;100.00
38289;BME280;24092;53.370;-6.588;2022-09-09T03:06:58;99985.25;;;11.73;100.00
38289;BME280;24092;53.370;-6.588;2022-09-09T03:09:25;99983.47;;;10.70;100.00
38289;BME280;24092;53.370;-6.588;2022-09-09T03:11:52;99976.96;;;11.35;100.00
38289;BME280;24092;53.370;-6.588;2022-09-09T03:14:19;99978.22;;;11.17;100.00
38289;BME280;24092;53.370;-6.588;2022-09-09T03:16:46;99977.55;;;10.65;100.00
38289;BME280;24092;53.370;-6.588;2022-09-09T03:19:13;99978.28;;;10.94;100.00
38289;BME280;24092;53.370;-6.588;2022-09-09T03:21:40;99981.17;;;10.56;100.00
38289;BME280;24092;53.370;-6.588;2022-09-09T03:24:07;99979.85;;;10.51;100.00
38289;BME280;24092;53.370;-6.588;2022-09-09T03:26:33;99980.98;;;11.12;100.00
38289;BME280;24092;53.370;-6.588;2022-09-09T03:29:01;99983.21;;;10.90;100.00
38289;BME280;24092;53.370;-6.588;2022-09-09T03:31:28;99985.22;;;10.22;100.00
38289;BME280;24092;53.370;-6.588;2022-09-09T03:33:55;99983.90;;;10.68;100.00
38289;BME280;24092;53.370;-6.588;2022-09-09T03:37:26;99981.43;;;9.65;100.00
38289;BME280;24092;53.370;-6.588;2022-09-09T03:39:53;99983.64;;;9.94;100.00
38289;BME280;24092;53.370;-6.588;2022-09-09T03:42:21;99978.56;;;10.09;100.00
38289;BME280;24092;53.370;-6.588;2022-09-09T03:44:49;99975.61;;;10.30;100.00
38289;BME280;24092;53.370;-6.588;2022-09-09T03:47:17;99977.43;;;10.74;100.00
38289;BME280;24092;53.370;-6.588;2022-09-09T03:49:44;99980.42;;;10.80;100.00
38289;BME280;24092;53.370;-6.588;2022-09-09T03:52:12;99974.63;;;10.28;100.00
38289;BME280;24092;53.370;-6.588;2022-09-09T03:54:38;99984.40;;;10.49;100.00
38289;BME280;24092;53.370;-6.588;2022-09-09T03:57:05;99984.26;;;10.89;100.00
38289;BME280;24092;53.370;-6.588;2022-09-09T03:59:32;99986.71;;;9.82;100.00
38289;BME280;24092;53.370;-6.588;2022-09-09T04:01:59;99980.87;;;10.68;100.00
38289;BME280;24092;53.370;-6.588;2022-09-09T04:04:26;99981.38;;;11.07;100.00
38289;BME280;24092;53.370;-6.588;2022-09-09T04:06:54;99989.87;;;9.61;100.00
38289;BME280;24092;53.370;-6.588;2022-09-09T04:09:21;99988.32;;;10.64;100.00
38289;BME280;24092;53.370;-6.588;2022-09-09T04:11:48;99984.75;;;9.99;100.00
38289;BME280;24092;53.370;-6.588;2022-09-09T04:14:15;99988.40;;;10.09;100.00
38289;BME280;24092;53.370;-6.588;2022-09-09T04:16:42;99984.05;;;11.04;100.00
38289;BME280;24092;53.370;-6.588;2022-09-09T04:19:09;99985.77;;;10.92;100.00
38289;BME280;24092;53.370;-6.588;2022-09-09T04:21:37;99989.02;;;10.61;100.00
38289;BME280;24092;53.370;-6.588;2022-09-09T04:24:05;99987.05;;;10.86;100.00
38289;BME280;24092;53.370;-6.588;2022-09-09T04:26:33;99986.55;;;11.20;100.00
38289;BME280;24092;53.370;-6.588;2022-09-09T04:29:00;99991.59;;;11.03;100.00
38289;BME280;24092;53.370;-6.588;2022-09-09T04:31:27;100000.06;;;9.38;100.00
38289;BME280;24092;53.370;-6.588;2022-09-09T04:33:54;99999.00;;;10.92;100.00
38289;BME280;24092;53.370;-6.588;2022-09-09T04:36:21;99986.33;;;11.10;100.00
38289;BME280;24092;53.370;-6.588;2022-09-09T04:38:48;99978.34;;;11.61;100.00
38289;BME280;24092;53.370;-6.588;2022-09-09T04:41:16;99990.08;;;11.06;100.00
38289;BME280;24092;53.370;-6.588;2022-09-09T04:43:43;99997.70;;;10.37;100.00
38289;BME280;24092;53.370;-6.588;2022-09-09T04:46:11;99994.18;;;11.39;100.00
38289;BME280;24092;53.370;-6.588;2022-09-09T04:48:37;99994.05;;;9.98;100.00
38289;BME280;24092;53.370;-6.588;2022-09-09T04:51:08;100001.61;;;10.75;100.00
38289;BME280;24092;53.370;-6.588;2022-09-09T04:53:35;99982.07;;;11.10;100.00
38289;BME280;24092;53.370;-6.588;2022-09-09T04:56:04;99987.87;;;11.08;100.00
38289;BME280;24092;53.370;-6.588;2022-09-09T04:58:31;99993.86;;;10.60;100.00
38289;BME280;24092;53.370;-6.588;2022-09-09T05:01:04;99991.03;;;11.06;100.00
38289;BME280;24092;53.370;-6.588;2022-09-09T05:03:31;99981.80;;;10.85;100.00
38289;BME280;24092;53.370;-6.588;2022-09-09T05:06:03;99985.03;;;10.55;100.00
38289;BME280;24092;53.370;-6.588;2022-09-09T05:08:31;99983.63;;;11.46;100.00
38289;BME280;24092;53.370;-6.588;2022-09-09T05:10:58;99984.80;;;10.47;100.00
38289;BME280;24092;53.370;-6.588;2022-09-09T05:13:25;99986.00;;;10.25;100.00
38289;BME280;24092;53.370;-6.588;2022-09-09T05:15:53;99985.54;;;11.18;100.00
38289;BME280;24092;53.370;-6.588;2022-09-09T05:18:21;99987.78;;;10.80;100.00
38289;BME280;24092;53.370;-6.588;2022-09-09T05:20:48;99987.61;;;10.50;100.00
38289;BME280;24092;53.370;-6.588;2022-09-09T05:23:15;99991.47;;;10.47;100.00
38289;BME280;24092;53.370;-6.588;2022-09-09T05:25:42;99991.97;;;10.84;100.00
38289;BME280;24092;53.370;-6.588;2022-09-09T05:28:09;99988.72;;;10.74;100.00
38289;BME280;24092;53.370;-6.588;2022-09-09T05:30:37;99994.60;;;10.67;100.00
38289;BME280;24092;53.370;-6.588;2022-09-09T05:33:04;99987.93;;;11.29;100.00
38289;BME280;24092;53.370;-6.588;2022-09-09T05:35:30;99991.47;;;10.74;100.00
38289;BME280;24092;53.370;-6.588;2022-09-09T05:37:59;99991.04;;;10.06;100.00
38289;BME280;24092;53.370;-6.588;2022-09-09T05:40:27;100001.22;;;9.14;100.00
38289;BME280;24092;53.370;-6.588;2022-09-09T05:42:53;100008.74;;;9.79;100.00
38289;BME280;24092;53.370;-6.588;2022-09-09T05:45:20;100003.07;;;9.98;100.00
38289;BME280;24092;53.370;-6.588;2022-09-09T05:47:52;100006.01;;;9.81;100.00
38289;BME280;24092;53.370;-6.588;2022-09-09T05:50:19;100007.92;;;10.01;100.00
38289;BME280;24092;53.370;-6.588;2022-09-09T05:52:46;100001.95;;;10.82;100.00
38289;BME280;24092;53.370;-6.588;2022-09-09T05:55:13;100006.92;;;9.91;100.00
38289;BME280;24092;53.370;-6.588;2022-09-09T05:57:40;100013.09;;;10.49;100.00
38289;BME280;24092;53.370;-6.588;2022-09-09T06:00:08;100018.13;;;11.17;100.00
38289;BME280;24092;53.370;-6.588;2022-09-09T06:02:35;100021.16;;;10.05;100.00
38289;BME280;24092;53.370;-6.588;2022-09-09T06:05:02;100022.50;;;10.98;100.00
38289;BME280;24092;53.370;-6.588;2022-09-09T06:07:29;100022.97;;;10.47;100.00
38289;BME280;24092;53.370;-6.588;2022-09-09T06:09:56;100027.26;;;10.05;100.00
38289;BME280;24092;53.370;-6.588;2022-09-09T06:12:22;100034.35;;;9.48;100.00
38289;BME280;24092;53.370;-6.588;2022-09-09T06:14:49;100038.25;;;10.13;100.00
38289;BME280;24092;53.370;-6.588;2022-09-09T06:17:16;100039.04;;;9.78;100.00
38289;BME280;24092;53.370;-6.588;2022-09-09T06:19:43;100039.97;;;10.95;100.00
38289;BME280;24092;53.370;-6.588;2022-09-09T06:22:10;100040.27;;;10.69;100.00
38289;BME280;24092;53.370;-6.588;2022-09-09T06:24:36;100040.34;;;11.22;100.00
38289;BME280;24092;53.370;-6.588;2022-09-09T06:27:04;100047.11;;;10.82;100.00
38289;BME280;24092;53.370;-6.588;2022-09-09T06:29:31;100051.84;;;10.83;100.00
38289;BME280;24092;53.370;-6.588;2022-09-09T06:31:58;100053.41;;;10.02;100.00
38289;BME280;24092;53.370;-6.588;2022-09-09T06:34:25;100060.50;;;10.52;100.00
38289;BME280;24092;53.370;-6.588;2022-09-09T06:36:51;100058.38;;;10.48;100.00
38289;BME280;24092;53.370;-6.588;2022-09-09T06:39:18;100057.10;;;10.41;100.00
38289;BME280;24092;53.370;-6.588;2022-09-09T06:41:45;100064.51;;;10.00;100.00
38289;BME280;24092;53.370;-6.588;2022-09-09T06:44:13;100070.04;;;9.85;100.00
38289;BME280;24092;53.370;-6.588;2022-09-09T06:46:40;100068.61;;;10.30;100.00
38289;BME280;24092;53.370;-6.588;2022-09-09T06:49:08;100076.99;;;9.89;100.00
38289;BME280;24092;53.370;-6.588;2022-09-09T06:51:37;100078.76;;;9.60;100.00
38289;BME280;24092;53.370;-6.588;2022-09-09T06:54:04;100077.30;;;10.42;100.00
38289;BME280;24092;53.370;-6.588;2022-09-09T06:56:32;100079.94;;;9.93;100.00
38289;BME280;24092;53.370;-6.588;2022-09-09T06:59:02;100085.66;;;10.14;100.00
38289;BME280;24092;53.370;-6.588;2022-09-09T07:01:32;100085.19;;;9.60;100.00
38289;BME280;24092;53.370;-6.588;2022-09-09T07:04:00;100092.96;;;8.93;100.00
38289;BME280;24092;53.370;-6.588;2022-09-09T07:06:29;100099.16;;;9.34;100.00
38289;BME280;24092;53.370;-6.588;2022-09-09T07:08:59;100103.29;;;9.93;100.00
38289;BME280;24092;53.370;-6.588;2022-09-09T07:11:28;100109.68;;;8.87;100.00
38289;BME280;24092;53.370;-6.588;2022-09-09T07:13:58;100120.78;;;9.19;100.00
38289;BME280;24092;53.370;-6.588;2022-09-09T07:16:27;100124.18;;;8.38;100.00
38289;BME280;24092;53.370;-6.588;2022-09-09T07:18:54;100129.93;;;9.25;100.00
38289;BME280;24092;53.370;-6.588;2022-09-09T07:21:22;100135.00;;;9.25;100.00
38289;BME280;24092;53.370;-6.588;2022-09-09T07:23:48;100130.09;;;9.23;100.00
38289;BME280;24092;53.370;-6.588;2022-09-09T07:26:17;100136.29;;;8.15;100.00
38289;BME280;24092;53.370;-6.588;2022-09-09T07:28:44;100141.90;;;8.44;100.00
38289;BME280;24092;53.370;-6.588;2022-09-09T07:31:14;100144.05;;;7.96;100.00
38289;BME280;24092;53.370;-6.588;2022-09-09T07:33:43;100146.40;;;8.74;100.00
38289;BME280;24092;53.370;-6.588;2022-09-09T07:36:14;100141.60;;;9.14;100.00
38289;BME280;24092;53.370;-6.588;2022-09-09T07:38:43;100143.28;;;9.11;100.00
38289;BME280;24092;53.370;-6.588;2022-09-09T07:41:12;100149.70;;;8.89;100.00
38289;BME280;24092;53.370;-6.588;2022-09-09T07:43:41;100154.38;;;8.75;100.00
38289;BME280;24092;53.370;-6.588;2022-09-09T07:46:10;100162.06;;;8.65;100.00
38289;BME280;24092;53.370;-6.588;2022-09-09T07:48:37;100168.96;;;8.45;100.00
38289;BME280;24092;53.370;-6.588;2022-09-09T07:51:07;100176.51;;;8.18;100.00
38289;BME280;24092;53.370;-6.588;2022-09-09T07:53:35;100177.01;;;8.81;100.00
38289;BME280;24092;53.370;-6.588;2022-09-09T07:56:04;100181.08;;;8.40;100.00
38289;BME280;24092;53.370;-6.588;2022-09-09T07:58:31;100184.32;;;9.26;100.00
38289;BME280;24092;53.370;-6.588;2022-09-09T08:00:58;100184.05;;;9.70;100.00
38289;BME280;24092;53.370;-6.588;2022-09-09T08:03:25;100181.04;;;9.82;100.00
38289;BME280;24092;53.370;-6.588;2022-09-09T08:05:51;100184.94;;;9.86;100.00
38289;BME280;24092;53.370;-6.588;2022-09-09T08:08:18;100186.65;;;10.00;100.00
38289;BME280;24092;53.370;-6.588;2022-09-09T08:10:45;100193.88;;;10.00;100.00
38289;BME280;24092;53.370;-6.588;2022-09-09T08:13:12;100196.46;;;10.52;100.00
38289;BME280;24092;53.370;-6.588;2022-09-09T08:15:39;100210.43;;;9.52;100.00
38289;BME280;24092;53.370;-6.588;2022-09-09T08:18:05;100208.92;;;9.87;100.00
38289;BME280;24092;53.370;-6.588;2022-09-09T08:20:32;100211.06;;;9.85;100.00
38289;BME280;24092;53.370;-6.588;2022-09-09T08:22:59;100219.04;;;9.70;100.00
38289;BME280;24092;53.370;-6.588;2022-09-09T08:25:26;100225.05;;;9.20;100.00
38289;BME280;24092;53.370;-6.588;2022-09-09T08:27:53;100233.38;;;8.64;100.00
38289;BME280;24092;53.370;-6.588;2022-09-09T08:30:20;100243.25;;;9.07;100.00
38289;BME280;24092;53.370;-6.588;2022-09-09T08:32:48;100243.43;;;10.19;100.00
38289;BME280;24092;53.370;-6.588;2022-09-09T08:35:16;100237.05;;;8.86;100.00
38289;BME280;24092;53.370;-6.588;2022-09-09T08:37:42;100241.47;;;9.84;100.00
38289;BME280;24092;53.370;-6.588;2022-09-09T08:40:17;100235.86;;;10.80;100.00
38289;BME280;24092;53.370;-6.588;2022-09-09T08:42:50;100239.96;;;10.10;100.00
38289;BME280;24092;53.370;-6.588;2022-09-09T08:45:26;100245.14;;;10.79;100.00
38289;BME280;24092;53.370;-6.588;2022-09-09T08:48:07;100249.70;;;10.42;100.00
38289;BME280;24092;53.370;-6.588;2022-09-09T08:50:37;100257.24;;;10.40;100.00
38289;BME280;24092;53.370;-6.588;2022-09-09T08:53:11;100257.31;;;9.92;100.00
38289;BME280;24092;53.370;-6.588;2022-09-09T08:55:45;100260.02;;;9.50;100.00
38289;BME280;24092;53.370;-6.588;2022-09-09T08:58:15;100259.64;;;10.65;100.00
38289;BME280;24092;53.370;-6.588;2022-09-09T09:01:02;100262.98;;;10.15;100.00
38289;BME280;24092;53.370;-6.588;2022-09-09T09:03:43;100271.40;;;9.90;100.00
38289;BME280;24092;53.370;-6.588;2022-09-09T09:06:24;100269.21;;;10.22;100.00
38289;BME280;24092;53.370;-6.588;2022-09-09T09:09:00;100277.19;;;10.13;100.00
38289;BME280;24092;53.370;-6.588;2022-09-09T09:11:35;100280.99;;;9.91;100.00
38289;BME280;24092;53.370;-6.588;2022-09-09T09:14:05;100288.68;;;9.78;100.00
38289;BME280;24092;53.370;-6.588;2022-09-09T09:16:43;100287.06;;;9.56;100.00
38289;BME280;24092;53.370;-6.588;2022-09-09T09:19:16;100294.55;;;9.98;100.00
38289;BME280;24092;53.370;-6.588;2022-09-09T09:21:48;100298.26;;;9.68;100.00
38289;BME280;24092;53.370;-6.588;2022-09-09T09:24:20;100299.57;;;9.88;100.00
38289;BME280;24092;53.370;-6.588;2022-09-09T09:26:48;100302.76;;;10.09;100.00
38289;BME280;24092;53.370;-6.588;2022-09-09T09:29:18;100293.94;;;10.59;100.00
38289;BME280;24092;53.370;-6.588;2022-09-09T09:31:48;100299.81;;;10.07;100.00
38289;BME280;24092;53.370;-6.588;2022-09-09T09:34:18;100302.00;;;10.06;100.00
38289;BME280;24092;53.370;-6.588;2022-09-09T09:36:52;100306.03;;;10.36;100.00
38289;BME280;24092;53.370;-6.588;2022-09-09T09:39:24;100307.71;;;10.41;100.00
38289;BME280;24092;53.370;-6.588;2022-09-09T09:41:52;100309.35;;;10.41;100.00
38289;BME280;24092;53.370;-6.588;2022-09-09T09:44:24;100317.35;;;9.97;100.00
38289;BME280;24092;53.370;-6.588;2022-09-09T09:46:52;100326.50;;;10.48;100.00
38289;BME280;24092;53.370;-6.588;2022-09-09T09:49:19;100325.22;;;10.48;100.00
38289;BME280;24092;53.370;-6.588;2022-09-09T09:51:47;100317.84;;;11.53;100.00
38289;BME280;24092;53.370;-6.588;2022-09-09T09:54:20;100320.30;;;10.96;100.00
38289;BME280;24092;53.370;-6.588;2022-09-09T09:56:48;100330.72;;;11.01;100.00
38289;BME280;24092;53.370;-6.588;2022-09-09T09:59:33;100328.93;;;10.90;100.00
38289;BME280;24092;53.370;-6.588;2022-09-09T10:02:19;100326.59;;;11.55;100.00
38289;BME280;24092;53.370;-6.588;2022-09-09T10:04:47;100326.72;;;11.28;100.00
38289;BME280;24092;53.370;-6.588;2022-09-09T10:07:18;100331.92;;;11.65;100.00
38289;BME280;24092;53.370;-6.588;2022-09-09T10:09:49;100336.78;;;11.37;100.00
38289;BME280;24092;53.370;-6.588;2022-09-09T10:12:29;100333.45;;;11.67;100.00
38289;BME280;24092;53.370;-6.588;2022-09-09T10:15:04;100332.29;;;12.08;100.00
38289;BME280;24092;53.370;-6.588;2022-09-09T10:17:37;100334.27;;;11.46;100.00
38289;BME280;24092;53.370;-6.588;2022-09-09T10:20:19;100340.49;;;11.29;100.00
38289;BME280;24092;53.370;-6.588;2022-09-09T10:23:02;100351.10;;;10.91;100.00
38289;BME280;24092;53.370;-6.588;2022-09-09T10:25:43;100359.50;;;10.54;100.00
38289;BME280;24092;53.370;-6.588;2022-09-09T10:28:29;100360.77;;;11.06;100.00
38289;BME280;24092;53.370;-6.588;2022-09-09T10:31:08;100364.49;;;10.39;100.00
38289;BME280;24092;53.370;-6.588;2022-09-09T10:33:44;100370.63;;;10.34;100.00
38289;BME280;24092;53.370;-6.588;2022-09-09T10:36:18;100378.01;;;10.96;100.00
38289;BME280;24092;53.370;-6.588;2022-09-09T10:38:47;100376.80;;;10.52;100.00
38289;BME280;24092;53.370;-6.588;2022-09-09T10:41:25;100380.79;;;10.33;100.00
38289;BME280;24092;53.370;-6.588;2022-09-09T10:44:42;100379.15;;;10.59;100.00
38289;BME280;24092;53.370;-6.588;2022-09-09T10:47:26;100384.47;;;10.86;100.00
38289;BME280;24092;53.370;-6.588;2022-09-09T10:50:10;100377.66;;;11.24;100.00
38289;BME280;24092;53.370;-6.588;2022-09-09T10:52:49;100388.63;;;11.06;100.00
38289;BME280;24092;53.370;-6.588;2022-09-09T10:55:24;100385.99;;;10.78;100.00
38289;BME280;24092;53.370;-6.588;2022-09-09T10:57:54;100389.41;;;12.05;100.00
38289;BME280;24092;53.370;-6.588;2022-09-09T11:00:25;100399.75;;;11.07;100.00
38289;BME280;24092;53.370;-6.588;2022-09-09T11:02:58;100411.91;;;10.81;100.00
38289;BME280;24092;53.370;-6.588;2022-09-09T11:05:29;100410.58;;;10.61;100.00
38289;BME280;24092;53.370;-6.588;2022-09-09T11:08:02;100414.37;;;10.47;100.00
38289;BME280;24092;53.370;-6.588;2022-09-09T11:10:37;100415.79;;;10.55;100.00
38289;BME280;24092;53.370;-6.588;2022-09-09T11:13:11;100419.06;;;11.26;100.00
38289;BME280;24092;53.370;-6.588;2022-09-09T11:15:43;100409.60;;;11.93;100.00
38289;BME280;24092;53.370;-6.588;2022-09-09T11:18:15;100406.15;;;11.48;100.00
38289;BME280;24092;53.370;-6.588;2022-09-09T11:20:47;100414.32;;;10.99;100.00
38289;BME280;24092;53.370;-6.588;2022-09-09T11:23:19;100419.30;;;10.70;100.00
38289;BME280;24092;53.370;-6.588;2022-09-09T11:25:52;100420.36;;;10.73;100.00
38289;BME280;24092;53.370;-6.588;2022-09-09T11:28:37;100418.42;;;10.98;100.00
38289;BME280;24092;53.370;-6.588;2022-09-09T11:31:19;100413.22;;;11.18;100.00
38289;BME280;24092;53.370;-6.588;2022-09-09T11:33:58;100412.48;;;11.37;100.00
38289;BME280;24092;53.370;-6.588;2022-09-09T11:36:43;100406.66;;;11.72;100.00
38289;BME280;24092;53.370;-6.588;2022-09-09T11:39:33;100406.97;;;12.55;100.00
38289;BME280;24092;53.370;-6.588;2022-09-09T11:42:12;100410.25;;;11.72;100.00
38289;BME280;24092;53.370;-6.588;2022-09-09T11:44:42;100417.44;;;11.59;100.00
38289;BME280;24092;53.370;-6.588;2022-09-09T11:47:19;100410.72;;;12.01;100.00
38289;BME280;24092;53.370;-6.588;2022-09-09T11:49:47;100408.81;;;12.87;100.00
38289;BME280;24092;53.370;-6.588;2022-09-09T11:52:22;100414.37;;;12.44;100.00
38289;BME280;24092;53.370;-6.588;2022-09-09T11:54:50;100419.99;;;11.25;100.00
38289;BME280;24092;53.370;-6.588;2022-09-09T11:57:24;100427.21;;;11.34;100.00
38289;BME280;24092;53.370;-6.588;2022-09-09T11:59:52;100426.71;;;11.06;100.00
38289;BME280;24092;53.370;-6.588;2022-09-09T12:02:25;100426.47;;;10.95;100.00
38289;BME280;24092;53.370;-6.588;2022-09-09T12:04:59;100417.40;;;11.24;100.00
38289;BME280;24092;53.370;-6.588;2022-09-09T12:07:33;100417.09;;;11.87;100.00
38289;BME280;24092;53.370;-6.588;2022-09-09T12:10:05;100415.44;;;12.07;100.00
38289;BME280;24092;53.370;-6.588;2022-09-09T12:12:45;100421.23;;;11.36;100.00
38289;BME280;24092;53.370;-6.588;2022-09-09T12:15:23;100423.54;;;11.48;100.00
38289;BME280;24092;53.370;-6.588;2022-09-09T12:17:52;100427.07;;;10.64;100.00
38289;BME280;24092;53.370;-6.588;2022-09-09T12:20:22;100427.28;;;11.31;100.00
38289;BME280;24092;53.370;-6.588;2022-09-09T12:23:00;100423.15;;;11.51;100.00
38289;BME280;24092;53.370;-6.588;2022-09-09T12:25:38;100426.89;;;11.65;100.00
38289;BME280;24092;53.370;-6.588;2022-09-09T12:28:16;100427.46;;;11.46;100.00
38289;BME280;24092;53.370;-6.588;2022-09-09T12:30:52;100429.16;;;12.13;100.00
38289;BME280;24092;53.370;-6.588;2022-09-09T12:33:21;100429.65;;;11.98;100.00
38289;BME280;24092;53.370;-6.588;2022-09-09T12:35:53;100431.27;;;12.63;100.00
38289;BME280;24092;53.370;-6.588;2022-09-09T12:38:29;100436.49;;;13.65;100.00
38289;BME280;24092;53.370;-6.588;2022-09-09T12:40:59;100430.34;;;14.45;100.00
38289;BME280;24092;53.370;-6.588;2022-09-09T12:43:28;100432.77;;;13.68;100.00
38289;BME280;24092;53.370;-6.588;2022-09-09T12:45:58;100428.15;;;12.61;100.00
38289;BME280;24092;53.370;-6.588;2022-09-09T12:48:32;100427.43;;;12.67;100.00
38289;BME280;24092;53.370;-6.588;2022-09-09T12:51:00;100428.61;;;12.03;100.00
38289;BME280;24092;53.370;-6.588;2022-09-09T12:53:31;100428.35;;;13.53;100.00
38289;BME280;24092;53.370;-6.588;2022-09-09T12:56:01;100432.54;;;13.11;100.00